Latest Weather Observations for Willis Island

IDQ60801

Issued at 10:02 am EST Saturday 30 May 2015 (issued every 30 minutes, with the page automatically refreshed every 10 minutes)

About weather observations | Map of weather stations | Latest weather observations for QLD | Other Formats
Station Details ID: 200283 Name: WILLIS ISLAND Lat: -16.29 Lon: 149.97 Height: 9.29 m
Data from the previous 72 hours. | See also: Recent months at Willis Island
Date/Time
EST
Temp
°C
App
Temp
°C
Dew
Point
Rel
Hum
%
Delta-T
°C
Wind Press
QNH
hPa
Press
MSL
hPa
Rain
since 9 am
mm
Dir
 
Spd
km/h
Gust
km/h
Spd
kts
Gust
kts
30/10:00am 27.3 24.9 21.8 72 3.7 E 37 41 20 22 1017.6 - 0.0
30/09:30am 27.1 24.5 21.5 71 3.7 ESE 37 41 20 22 1017.9 - 0.0
30/09:00am 26.9 24.6 21.2 71 3.8 E 35 41 19 22 1018.1 1018.1 0.6
30/08:30am 26.6 23.5 21.2 72 3.6 E 39 44 21 24 1018.1 - 0.6
30/08:00am 26.5 24.0 21.7 75 3.2 E 37 43 20 23 1017.8 - 0.6
30/07:30am 26.2 23.5 21.9 77 2.9 E 39 46 21 25 1017.5 - 0.6
30/07:00am 25.9 21.9 21.0 74 3.2 E 43 48 23 26 1017.3 - 0.6
30/06:30am 26.0 22.2 21.3 75 3.1 ESE 43 48 23 26 1016.8 - 0.6
30/06:00am 25.8 21.8 20.9 74 3.2 E 43 50 23 27 1016.4 1016.4 0.6
30/05:30am 25.7 22.2 21.2 76 3.0 E 41 50 22 27 1016.1 - 0.6
30/05:00am 24.7 22.1 22.2 86 1.7 ESE 39 50 21 27 1016.1 - 0.6
30/04:37am 25.0 22.3 22.6 86 1.6 ESE 41 44 22 24 1015.9 - 0.6
30/04:30am 24.9 22.8 22.4 86 1.7 E 37 56 20 30 1015.8 - 0.6
30/04:25am 24.5 21.8 21.2 82 2.2 E 37 56 20 30 1015.7 - 0.4
30/04:21am 25.0 23.4 22.6 86 1.6 E 35 43 19 23 1015.8 - 0.2
30/04:00am 25.0 21.6 22.0 83 2.0 ESE 43 50 23 27 1015.6 - 0.2
30/03:30am 26.0 24.2 22.3 80 2.5 E 35 41 19 22 1015.4 - 0.2
30/03:00am 25.8 23.8 22.5 82 2.2 E 37 48 20 26 1015.5 1015.5 0.2
30/02:30am 25.9 23.4 21.7 77 2.8 E 37 44 20 24 1015.5 - 0.2
30/02:00am 25.7 24.1 23.2 86 1.7 ESE 37 43 20 23 1015.7 - 0.2
30/01:56am 25.7 23.6 23.0 85 1.8 ESE 39 43 21 23 1015.8 - 0.2
30/01:30am 26.3 24.2 22.3 78 2.7 E 37 41 20 22 1016.0 - 0.2
30/01:00am 26.1 24.9 22.7 81 2.3 E 33 39 18 21 1016.5 - 0.2
30/12:30am 26.0 24.2 22.3 80 2.5 E 35 41 19 22 1016.7 - 0.2
30/12:00am 25.8 24.8 22.7 83 2.1 E 32 39 17 21 1016.9 1016.9 0.2
 
Date/Time
EST
Temp
°C
App
Temp
°C
Dew
Point
Rel
Hum
%
Delta-T
°C
Wind Press
QNH
hPa
Press
MSL
hPa
Rain
since 9 am
mm
Dir
 
Spd
km/h
Gust
km/h
Spd
kts
Gust
kts
29/11:30pm 25.6 25.1 22.8 84 1.9 ESE 30 33 16 18 1017.2 - 0.2
29/11:00pm 25.8 25.8 23.1 85 1.8 E 28 33 15 18 1017.6 - 0.2
29/10:30pm 25.9 25.6 22.6 82 2.2 ESE 28 32 15 17 1017.8 - 0.2
29/10:00pm 25.9 24.5 22.0 79 2.6 E 32 35 17 19 1017.9 - 0.2
29/09:30pm 25.7 25.6 22.3 81 2.3 E 26 30 14 16 1017.8 - 0.2
29/09:00pm 25.9 24.3 21.5 76 2.9 E 32 35 17 19 1017.7 1017.7 0.2
29/08:30pm 25.8 24.1 21.7 78 2.7 E 33 39 18 21 1017.6 - 0.2
29/08:00pm 25.8 24.4 21.9 79 2.6 ESE 32 37 17 20 1017.5 - 0.2
29/07:30pm 25.6 23.1 21.7 79 2.6 ESE 37 43 20 23 1017.0 - 0.2
29/07:00pm 25.8 24.3 21.7 78 2.7 ESE 32 35 17 19 1016.8 - 0.2
29/06:30pm 25.6 24.2 22.0 80 2.4 ESE 32 39 17 21 1016.5 - 0.2
29/06:00pm 25.7 23.6 21.6 78 2.7 ESE 35 41 19 22 1016.2 1016.2 0.2
29/05:30pm 25.6 23.5 21.7 79 2.6 ESE 35 41 19 22 1015.9 - 0.0
29/05:00pm 25.4 25.0 22.3 83 2.1 ESE 28 35 15 19 1015.7 - 0.0
29/04:30pm 26.5 24.8 21.4 73 3.4 ESE 32 35 17 19 1015.5 - 0.0
29/04:00pm 26.6 24.6 21.2 72 3.6 ESE 33 39 18 21 1015.4 - 0.0
29/03:30pm 27.0 25.0 21.1 70 3.9 ESE 33 37 18 20 1015.2 - 0.0
29/03:00pm 27.3 25.3 21.1 69 4.1 ESE 33 39 18 21 1015.1 1015.1 0.0
29/02:30pm 27.4 25.4 21.1 68 4.2 E 33 39 18 21 1015.2 - 0.0
29/02:00pm 27.5 25.0 20.8 67 4.4 E 35 41 19 22 1015.5 - 0.0
29/01:30pm 27.7 24.8 20.9 66 4.5 E 37 44 20 24 1015.8 - 0.0
29/01:00pm 27.5 24.0 20.5 65 4.6 E 39 44 21 24 1016.0 - 0.0
29/12:30pm 27.7 25.2 20.9 66 4.5 E 35 43 19 23 1016.4 - 0.0
29/12:00pm 27.2 25.3 22.0 73 3.5 ESE 35 41 19 22 1017.0 1017.0 0.0
29/11:30am 27.2 25.5 21.7 72 3.7 ESE 33 43 18 23 1017.3 - 0.0
29/11:00am 27.0 24.9 21.6 72 3.6 ESE 35 39 19 21 1017.7 - 0.0
29/10:30am 27.5 25.2 21.2 68 4.2 ESE 35 44 19 24 1017.9 - 0.0
29/10:00am 26.1 22.0 20.8 72 3.5 ESE 43 52 23 28 1018.3 - 0.0
29/09:30am 27.0 24.2 21.8 73 3.5 SE 39 48 21 26 1018.6 - 0.0
29/09:00am 26.8 24.1 20.4 68 4.2 ESE 35 43 19 23 1018.4 1018.4 0.0
29/08:30am 26.7 24.5 20.8 70 3.9 ESE 33 39 18 21 1018.3 - 0.0
29/08:00am 26.6 23.5 20.5 69 4.0 ESE 37 43 20 23 1017.9 - 0.0
29/07:30am 25.8 23.1 20.4 72 3.5 ESE 35 41 19 22 1017.6 - 0.0
29/07:00am 25.8 22.9 20.9 74 3.2 ESE 37 43 20 23 1017.2 - 0.0
29/06:30am 25.5 22.2 20.1 72 3.5 ESE 37 46 20 25 1016.9 - 0.0
29/06:00am 25.6 22.6 20.7 74 3.2 ESE 37 43 20 23 1016.7 1016.7 0.0
29/05:30am 25.4 22.0 19.8 71 3.6 ESE 37 43 20 23 1016.4 - 0.0
29/05:00am 25.3 22.0 20.1 73 3.4 ESE 37 46 20 25 1016.3 - 0.0
29/04:30am 25.5 22.1 19.9 71 3.6 ESE 37 43 20 23 1016.3 - 0.0
29/04:00am 25.4 22.0 20.7 75 3.1 ESE 39 44 21 24 1016.1 - 0.0
29/03:30am 25.4 22.8 20.7 75 3.1 ESE 35 44 19 24 1016.2 - 0.0
29/03:00am 25.2 21.9 20.1 73 3.3 ESE 37 44 20 24 1016.3 1016.3 0.0
29/02:30am 25.4 21.9 19.7 70 3.7 ESE 37 43 20 23 1016.5 - 0.0
29/02:00am 25.3 21.9 19.9 72 3.5 ESE 37 44 20 24 1016.7 - 0.0
29/01:30am 25.3 22.3 20.6 75 3.1 ESE 37 46 20 25 1016.9 - 0.0
29/01:00am 25.5 22.0 20.4 73 3.3 ESE 39 44 21 24 1017.2 - 0.0
29/12:30am 25.5 21.9 20.1 72 3.5 ESE 39 44 21 24 1017.5 - 0.0
29/12:00am 25.7 22.2 20.5 73 3.4 ESE 39 46 21 25 1017.6 1017.6 0.0
 
Date/Time
EST
Temp
°C
App
Temp
°C
Dew
Point
Rel
Hum
%
Delta-T
°C
Wind Press
QNH
hPa
Press
MSL
hPa
Rain
since 9 am
mm
Dir
 
Spd
km/h
Gust
km/h
Spd
kts
Gust
kts
28/11:30pm 25.7 22.0 20.8 74 3.2 ESE 41 46 22 25 1017.8 - 0.0
28/11:00pm 25.7 22.3 21.3 76 2.9 SE 41 50 22 27 1017.9 - 0.0
28/10:30pm 25.7 21.7 21.0 75 3.1 ESE 43 48 23 26 1018.0 - 0.0
28/10:00pm 25.7 21.7 21.0 75 3.1 ESE 43 50 23 27 1018.0 - 0.0
28/09:30pm 25.9 22.3 20.9 74 3.3 ESE 41 46 22 25 1018.1 - 0.0
28/09:00pm 25.9 23.0 21.5 76 2.9 ESE 39 48 21 26 1017.9 1017.9 0.0
28/08:30pm 25.9 22.6 20.9 74 3.3 E 39 46 21 25 1017.7 - 0.0
28/08:00pm 25.8 22.3 20.3 71 3.6 ESE 39 44 21 24 1017.6 - 0.0
28/07:30pm 25.8 21.8 20.1 71 3.7 ESE 41 46 22 25 1017.2 - 0.0
28/07:00pm 25.8 22.4 20.6 73 3.4 ESE 39 44 21 24 1016.8 - 0.0
28/06:30pm 25.8 22.2 20.1 71 3.7 ESE 39 46 21 25 1016.4 - 0.0
28/06:00pm 25.9 23.3 21.4 76 3.0 ESE 37 43 20 23 1016.1 1016.1 0.0
28/05:30pm 26.1 23.5 21.4 75 3.1 ESE 37 43 20 23 1015.9 - 0.0
28/05:00pm 26.2 23.9 21.2 74 3.3 ESE 35 41 19 22 1015.7 - 0.0
28/04:30pm 26.3 24.2 21.0 72 3.5 ESE 33 39 18 21 1015.4 - 0.0
28/04:00pm 26.7 24.5 20.4 68 4.1 E 32 37 17 20 1015.2 - 0.0
28/03:30pm 27.1 25.1 21.1 69 4.0 ESE 33 41 18 22 1015.0 - 0.0
28/03:00pm 27.3 25.7 21.6 71 3.8 ESE 32 37 17 20 1014.9 1014.9 0.0
28/02:30pm 27.5 25.8 21.3 69 4.1 ESE 32 37 17 20 1015.1 - 0.0
28/02:00pm 27.8 26.2 21.8 70 4.0 ESE 33 37 18 20 1015.2 - 0.0
28/01:30pm 27.9 26.3 21.5 68 4.3 ESE 32 39 17 21 1015.5 - 0.0
28/01:00pm 27.6 25.7 21.4 69 4.1 ESE 33 37 18 20 1015.6 - 0.0
28/12:30pm 28.0 26.3 21.7 68 4.2 ESE 33 39 18 21 1016.0 - 0.0
28/12:00pm 27.3 25.0 21.3 69 4.0 ESE 35 39 19 21 1016.3 1016.3 0.0
28/11:30am 27.5 25.8 21.7 70 3.9 ESE 33 39 18 21 1016.8 - 0.0
28/11:00am 27.3 25.4 21.4 70 3.9 ESE 33 39 18 21 1017.1 - 0.0
28/10:30am 27.4 25.2 21.4 70 4.0 ESE 35 43 19 23 1017.4 - 0.0
28/10:00am 27.3 25.4 21.4 70 3.9 ESE 33 39 18 21 1017.5 - 0.0
28/09:30am 27.5 25.7 21.5 70 4.0 ESE 33 39 18 21 1017.7 - 0.0
28/09:00am 26.9 24.6 21.2 71 3.8 ESE 35 41 19 22 1017.7 1017.7 0.6
28/08:30am 26.8 24.4 21.0 70 3.8 ESE 35 39 19 21 1017.7 - 0.6
28/08:00am 26.2 24.0 20.7 71 3.6 ESE 33 41 18 22 1017.5 - 0.6
28/07:30am 25.9 23.3 20.7 73 3.4 ESE 35 41 19 22 1017.3 - 0.6
28/07:00am 25.9 23.7 21.4 76 3.0 ESE 35 41 19 22 1016.9 - 0.6
28/06:30am 25.7 23.0 21.2 76 3.0 ESE 37 43 20 23 1016.5 - 0.6
28/06:00am 25.7 22.5 21.0 75 3.1 ESE 39 44 21 24 1016.1 1016.1 0.6
28/05:30am 25.7 22.6 21.2 76 3.0 ESE 39 43 21 23 1015.7 - 0.6
28/05:00am 25.6 22.2 20.7 74 3.2 ESE 39 44 21 24 1015.4 - 0.6
28/04:30am 25.7 22.3 20.7 74 3.3 ESE 39 44 21 24 1015.2 - 0.6
28/04:00am 25.7 22.9 21.0 75 3.1 ESE 37 43 20 23 1015.0 - 0.6
28/03:30am 25.7 22.2 20.5 73 3.4 ESE 39 46 21 25 1015.0 - 0.6
28/03:00am 25.7 22.8 21.5 77 2.8 ESE 39 46 21 25 1015.0 1015.0 0.6
28/02:30am 25.7 22.4 20.8 74 3.2 ESE 39 46 21 25 1015.0 - 0.6
28/02:00am 25.6 22.2 20.7 74 3.2 ESE 39 46 21 25 1015.3 - 0.6
28/01:30am 25.7 22.0 20.7 74 3.3 ESE 41 50 22 27 1015.6 - 0.6
28/01:00am 25.8 22.8 21.4 76 2.9 ESE 39 48 21 26 1016.0 - 0.6
28/12:30am 25.8 22.1 20.8 74 3.3 ESE 41 46 22 25 1016.3 - 0.6
28/12:00am 25.7 22.4 20.8 74 3.2 ESE 39 46 21 25 1016.5 1016.5 0.6
 
Date/Time
EST
Temp
°C
App
Temp
°C
Dew
Point
Rel
Hum
%
Delta-T
°C
Wind Press
QNH
hPa
Press
MSL
hPa
Rain
since 9 am
mm
Dir
 
Spd
km/h
Gust
km/h
Spd
kts
Gust
kts
27/11:30pm 25.8 22.9 20.8 74 3.3 ESE 37 43 20 23 1016.5 - 0.6
27/11:00pm 25.7 21.4 20.3 72 3.5 ESE 43 48 23 26 1016.8 - 0.6
27/10:30pm 25.7 21.2 20.2 71 3.6 ESE 44 50 24 27 1016.9 - 0.4
27/10:00pm 25.7 21.8 20.3 72 3.5 ESE 41 50 22 27 1017.0 - 0.4
27/09:30pm 25.7 22.4 20.8 74 3.2 SE 39 48 21 26 1017.0 - 0.4
27/09:00pm 25.7 21.6 20.7 74 3.3 SE 43 50 23 27 1016.8 1016.8 0.4
27/08:30pm 25.6 20.9 20.7 74 3.2 ESE 46 54 25 29 1016.5 - 0.4
27/08:00pm 25.6 21.7 21.2 76 2.9 ESE 43 50 23 27 1016.5 - 0.4
27/07:30pm 25.5 21.4 21.1 76 2.9 ESE 44 50 24 27 1016.3 - 0.4
27/07:00pm 24.8 20.4 21.3 81 2.3 SE 46 54 25 29 1016.1 - 0.4
27/06:30pm 25.3 21.8 21.2 78 2.7 ESE 41 48 22 26 1015.7 - 0.4
27/06:00pm 24.8 22.7 22.3 86 1.7 SE 37 46 20 25 1015.6 1015.6 0.4
27/05:30pm 25.1 22.2 21.5 80 2.4 ESE 39 50 21 27 1015.2 - 0.4
27/05:15pm 24.4 21.9 22.3 88 1.4 E 39 57 21 31 1015.1 - 0.0
27/05:00pm 24.3 21.0 22.7 91 1.1 E 44 54 24 29 1014.8 - 0.0
27/04:49pm 24.9 21.3 22.8 88 1.4 E 46 50 25 27 1014.7 - 0.0
27/04:30pm 26.1 23.1 22.1 78 2.7 ESE 41 48 22 26 1014.7 - 0.0
27/04:00pm 26.1 22.3 21.4 75 3.1 ESE 43 48 23 26 1014.5 - 0.0
27/03:30pm 26.1 22.0 21.1 74 3.3 ESE 44 52 24 28 1014.5 - 0.0
27/03:00pm 26.4 23.8 22.1 77 2.9 SE 39 46 21 25 1014.6 1014.6 0.0
27/02:30pm 26.5 23.8 22.0 76 3.0 ESE 39 44 21 24 1014.8 - 0.0
27/02:00pm 26.6 23.8 21.8 75 3.2 ESE 39 44 21 24 1014.8 - 0.0
27/01:30pm 26.3 23.6 22.7 80 2.4 ESE 41 46 22 25 1015.0 - 0.0
27/01:00pm 27.4 25.0 21.9 72 3.7 ESE 37 46 20 25 1015.3 - 0.0
27/12:30pm 26.9 24.4 21.6 72 3.5 ESE 37 44 20 24 1015.8 - 0.0
27/12:00pm 27.1 24.5 22.2 74 3.3 ESE 39 44 21 24 1016.4 1016.4 0.0
27/11:30am 27.1 25.4 22.5 76 3.1 SE 35 43 19 23 1016.7 - 0.0
27/11:00am 27.1 25.0 23.0 78 2.8 SE 39 44 21 24 1016.9 - 0.0
27/10:30am 26.4 24.3 23.0 81 2.3 SE 39 44 21 24 1017.2 - 0.0

Other Formats:

Comma delimited format used in spreadsheet applications
http://www.bom.gov.au/fwo/IDQ60801/IDQ60801.94299.axf

JavaScript Object Notation format (JSON) in row-major order
http://www.bom.gov.au/fwo/IDQ60801/IDQ60801.94299.json